createdAt,value
2019-02-04T00:01:23.267Z,0.50
2019-02-04T00:03:58.171Z,0.50
2019-02-04T00:06:29.071Z,0.50
2019-02-04T00:09:02.656Z,0.60
2019-02-04T00:11:38.083Z,0.50
2019-02-04T00:14:11.015Z,0.60
2019-02-04T00:16:43.786Z,0.55
2019-02-04T00:19:16.574Z,0.60
2019-02-04T00:21:50.209Z,0.62
2019-02-04T00:24:24.365Z,0.60
2019-02-04T00:26:58.820Z,0.60
2019-02-04T00:29:32.915Z,0.60
2019-02-04T00:32:05.647Z,0.50
2019-02-04T00:34:43.367Z,0.50
2019-02-04T00:37:18.082Z,0.60
2019-02-04T00:39:50.687Z,0.60
2019-02-04T00:42:28.959Z,0.60
2019-02-04T00:45:04.568Z,0.60
2019-02-04T00:47:38.370Z,0.60
2019-02-04T00:50:13.060Z,0.50
2019-02-04T00:52:44.543Z,0.60
2019-02-04T00:55:19.012Z,0.60
2019-02-04T00:57:50.637Z,0.50
2019-02-04T01:00:26.892Z,0.60
2019-02-04T01:02:59.298Z,0.60
2019-02-04T01:05:34.019Z,0.60
2019-02-04T01:08:05.927Z,0.60
2019-02-04T01:10:36.045Z,0.60
2019-02-04T01:13:10.595Z,0.60
2019-02-04T01:15:44.230Z,0.60
2019-02-04T01:18:14.835Z,0.60
2019-02-04T01:20:49.507Z,0.60
2019-02-04T01:23:20.892Z,0.60
2019-02-04T01:25:53.188Z,0.60
2019-02-04T01:28:28.127Z,0.60
2019-02-04T01:31:00.971Z,0.60
2019-02-04T01:33:31.844Z,0.57
2019-02-04T01:36:03.111Z,0.60
2019-02-04T01:38:34.007Z,0.60
2019-02-04T01:41:07.114Z,0.65
2019-02-04T01:43:40.681Z,0.60
2019-02-04T01:46:17.073Z,0.60
2019-02-04T01:48:49.749Z,0.60
2019-02-04T01:51:23.747Z,0.60
2019-02-04T01:53:56.583Z,0.60
2019-02-04T01:56:29.671Z,0.60
2019-02-04T01:59:03.716Z,0.50
2019-02-04T02:01:38.402Z,0.60
2019-02-04T02:04:10.666Z,0.62
2019-02-04T02:06:44.355Z,0.60
2019-02-04T02:09:26.118Z,0.60
2019-02-04T02:11:57.735Z,0.60
2019-02-04T02:14:28.675Z,0.60
2019-02-04T02:16:59.398Z,0.50
2019-02-04T02:19:30.404Z,0.60
2019-02-04T02:22:04.136Z,0.60
2019-02-04T02:24:37.717Z,0.60
2019-02-04T02:27:12.540Z,0.60
2019-02-04T02:29:47.008Z,0.60
2019-02-04T02:32:19.114Z,0.50
2019-02-04T02:34:52.323Z,0.60
2019-02-04T02:37:26.929Z,0.60
2019-02-04T02:39:56.658Z,0.60
2019-02-04T02:42:31.363Z,0.60
2019-02-04T02:45:06.146Z,0.60
2019-02-04T02:47:42.828Z,0.60
2019-02-04T02:50:16.360Z,0.60
2019-02-04T02:52:50.983Z,0.60
2019-02-04T02:55:22.714Z,0.60
2019-02-04T02:57:57.602Z,0.60
2019-02-04T03:00:31.396Z,0.60
2019-02-04T03:03:05.025Z,0.60
2019-02-04T03:05:38.095Z,0.50
2019-02-04T03:08:11.234Z,0.60
2019-02-04T03:10:44.067Z,0.50
2019-02-04T03:13:17.492Z,0.57
2019-02-04T03:15:48.713Z,0.60
2019-02-04T03:18:18.962Z,0.60
2019-02-04T03:20:49.715Z,0.60
2019-02-04T03:23:22.679Z,0.60
2019-02-04T03:25:57.342Z,0.60
2019-02-04T03:28:36.580Z,0.60
2019-02-04T03:31:07.533Z,0.60
2019-02-04T03:33:41.094Z,0.60
2019-02-04T03:36:14.726Z,0.60
2019-02-04T03:38:48.940Z,0.62
2019-02-04T03:41:22.084Z,0.60
2019-02-04T03:43:57.194Z,0.60
2019-02-04T03:46:29.955Z,0.68
2019-02-04T03:49:02.239Z,0.50
2019-02-04T03:51:36.942Z,0.60
2019-02-04T03:54:09.935Z,0.60
2019-02-04T03:56:43.133Z,0.50
2019-02-04T03:59:16.869Z,0.60
2019-02-04T04:01:52.973Z,0.60
2019-02-04T04:04:27.883Z,0.60
2019-02-04T04:06:57.671Z,0.60
2019-02-04T04:09:27.393Z,0.53
2019-02-04T04:12:02.688Z,0.60
2019-02-04T04:14:35.344Z,0.60
2019-02-04T04:17:09.157Z,0.60
2019-02-04T04:19:42.763Z,0.60
2019-02-04T04:22:16.457Z,0.60
2019-02-04T04:24:49.574Z,0.60
2019-02-04T04:27:22.159Z,0.60
2019-02-04T04:29:52.624Z,0.60
2019-02-04T04:32:23.394Z,0.60
2019-02-04T04:34:56.431Z,0.60
2019-02-04T04:37:29.125Z,0.60
2019-02-04T04:40:05.086Z,0.53
2019-02-04T04:42:39.747Z,0.60
2019-02-04T04:45:14.183Z,0.60
2019-02-04T04:47:57.691Z,0.60
2019-02-04T04:50:58.406Z,0.60
2019-02-04T04:53:33.159Z,0.60
2019-02-04T04:56:08.287Z,0.60
2019-02-04T04:58:41.641Z,0.57
2019-02-04T05:01:17.182Z,0.60
2019-02-04T05:03:50.243Z,0.60
2019-02-04T05:06:22.334Z,0.60
2019-02-04T05:08:55.975Z,0.60
2019-02-04T05:11:28.584Z,0.60
2019-02-04T05:14:02.125Z,0.53
2019-02-04T05:16:36.439Z,0.60
2019-02-04T05:19:13.059Z,0.60
2019-02-04T05:21:44.787Z,0.60
2019-02-04T05:24:16.482Z,0.50
2019-02-04T05:26:50.310Z,0.57
2019-02-04T05:29:24.458Z,0.60
2019-02-04T05:31:58.111Z,0.50
2019-02-04T05:34:30.709Z,0.57
2019-02-04T05:37:03.652Z,0.50
2019-02-04T05:39:39.314Z,0.60
2019-02-04T05:42:15.015Z,0.62
2019-02-04T05:44:50.495Z,0.60
2019-02-04T05:47:22.983Z,0.60
2019-02-04T05:49:56.734Z,0.60
2019-02-04T05:52:30.726Z,0.60
2019-02-04T05:55:06.342Z,0.60
2019-02-04T05:57:39.283Z,0.50
2019-02-04T06:00:17.972Z,0.55
2019-02-04T06:02:51.263Z,0.60
2019-02-04T06:05:23.147Z,0.60
2019-02-04T06:07:57.250Z,0.60
2019-02-04T06:10:32.030Z,0.60
2019-02-04T06:13:05.703Z,0.60
2019-02-04T06:15:40.390Z,0.60
2019-02-04T06:18:10.942Z,0.60
2019-02-04T06:20:41.218Z,0.60
2019-02-04T06:23:11.612Z,0.60
2019-02-04T06:25:41.846Z,0.60
2019-02-04T06:28:11.287Z,0.50
2019-02-04T06:30:45.732Z,0.60
2019-02-04T06:33:20.750Z,0.50
2019-02-04T06:35:55.366Z,0.50
2019-02-04T06:38:28.594Z,0.60
2019-02-04T06:41:04.718Z,0.50
2019-02-04T06:43:38.435Z,0.60
2019-02-04T06:46:10.756Z,0.60
2019-02-04T06:48:42.156Z,0.60
2019-02-04T06:51:15.831Z,0.60
2019-02-04T06:53:50.247Z,0.60
2019-02-04T06:56:28.483Z,0.50
2019-02-04T06:59:04.975Z,0.50
2019-02-04T07:01:38.494Z,0.50
2019-02-04T07:04:13.373Z,0.50
2019-02-04T07:06:47.939Z,0.50
2019-02-04T07:09:21.099Z,0.60
2019-02-04T07:11:52.969Z,0.60
2019-02-04T07:14:26.663Z,0.60
2019-02-04T07:17:00.084Z,0.60
2019-02-04T07:19:35.454Z,0.60
2019-02-04T07:22:11.099Z,0.60
2019-02-04T07:24:45.171Z,0.60
2019-02-04T07:27:22.399Z,0.60
2019-02-04T07:29:54.603Z,0.60
2019-02-04T07:32:29.228Z,0.55
2019-02-04T07:35:06.819Z,0.60
2019-02-04T07:37:41.475Z,0.60
2019-02-04T07:40:20.935Z,0.50
2019-02-04T07:42:56.754Z,0.62
2019-02-04T07:45:31.086Z,0.50
2019-02-04T07:48:05.646Z,0.60
2019-02-04T07:50:43.556Z,0.60
2019-02-04T07:53:18.969Z,0.60
2019-02-04T07:55:52.638Z,0.60
2019-02-04T07:58:25.645Z,0.50
2019-02-04T08:01:01.842Z,0.60
2019-02-04T08:03:34.887Z,0.60
2019-02-04T08:06:08.450Z,0.50
2019-02-04T08:08:41.535Z,0.60
2019-02-04T08:11:14.248Z,0.60
2019-02-04T08:13:45.307Z,0.60
2019-02-04T08:16:44.450Z,0.60
2019-02-04T08:19:47.156Z,0.50
2019-02-04T08:22:18.563Z,0.60
2019-02-04T08:24:51.664Z,0.57
2019-02-04T08:27:25.452Z,0.60
2019-02-04T08:29:57.950Z,0.60
2019-02-04T08:32:30.975Z,0.60
2019-02-04T08:35:04.035Z,0.60
2019-02-04T08:37:36.231Z,0.55
2019-02-04T08:40:08.911Z,0.50
2019-02-04T08:42:44.468Z,0.60
2019-02-04T08:45:17.962Z,0.50
2019-02-04T08:47:51.527Z,0.60
2019-02-04T08:50:24.837Z,0.60
2019-02-04T08:52:59.161Z,0.50
2019-02-04T08:55:31.231Z,0.50
2019-02-04T08:58:03.386Z,0.60
2019-02-04T09:00:33.891Z,0.60
2019-02-04T09:03:05.949Z,0.50
2019-02-04T09:05:41.213Z,0.50
2019-02-04T09:08:14.292Z,0.60
2019-02-04T09:10:59.612Z,0.60
2019-02-04T09:13:30.064Z,0.70
2019-02-04T09:16:02.484Z,0.50
2019-02-04T09:18:44.206Z,0.60
2019-02-04T09:21:10.935Z,0.57
2019-02-04T09:23:45.374Z,0.50
2019-02-04T09:26:16.435Z,0.50
2019-02-04T09:28:50.142Z,0.50
2019-02-04T09:31:23.088Z,0.50
2019-02-04T09:33:58.175Z,0.50
2019-02-04T09:36:30.988Z,0.50
2019-02-04T09:39:08.667Z,0.53
2019-02-04T09:41:43.086Z,0.50
2019-02-04T09:44:17.274Z,0.50
2019-02-04T09:46:52.767Z,0.50
2019-02-04T09:49:26.281Z,0.60
2019-02-04T09:52:02.023Z,0.50
2019-02-04T09:54:34.631Z,0.50
2019-02-04T09:57:07.045Z,0.50
2019-02-04T09:59:39.314Z,0.50
2019-02-04T10:02:12.704Z,0.43
2019-02-04T10:04:47.335Z,0.50
2019-02-04T10:07:19.007Z,0.50
2019-02-04T10:09:53.572Z,0.50
2019-02-04T10:12:30.607Z,0.60
2019-02-04T10:15:03.743Z,0.50
2019-02-04T10:18:13.896Z,0.50
2019-02-04T10:21:04.852Z,0.50
2019-02-04T10:23:38.045Z,0.50
2019-02-04T10:26:18.647Z,0.50
2019-02-04T10:28:57.192Z,0.50
2019-02-04T10:31:28.644Z,0.50
2019-02-04T10:34:01.920Z,0.50
2019-02-04T10:36:38.279Z,0.50
2019-02-04T10:39:12.112Z,0.50
2019-02-04T10:41:42.666Z,0.50
2019-02-04T10:44:12.792Z,0.50
2019-02-04T10:46:45.906Z,0.50
2019-02-04T10:49:21.732Z,0.50
2019-02-04T10:51:53.852Z,0.50
2019-02-04T10:54:26.591Z,0.50
2019-02-04T10:56:59.272Z,0.50
2019-02-04T10:59:32.486Z,0.50
2019-02-04T11:02:03.464Z,0.50
2019-02-04T11:04:33.992Z,0.50
2019-02-04T11:07:10.553Z,0.50
2019-02-04T11:09:40.256Z,0.50
2019-02-04T11:12:15.182Z,0.50
2019-02-04T11:14:47.850Z,0.50
2019-02-04T11:17:21.000Z,0.50
2019-02-04T11:19:55.048Z,0.50
2019-02-04T11:22:28.063Z,0.50
2019-02-04T11:25:03.048Z,0.50
2019-02-04T11:27:33.606Z,0.50
2019-02-04T11:30:10.092Z,0.50
2019-02-04T11:32:41.670Z,0.50
2019-02-04T11:35:22.220Z,0.50
2019-02-04T11:37:55.441Z,0.50
2019-02-04T11:40:33.506Z,0.40
2019-02-04T11:43:06.150Z,0.50
2019-02-04T11:45:38.193Z,0.50
2019-02-04T11:48:11.716Z,0.40
2019-02-04T11:50:46.279Z,0.40
2019-02-04T11:53:18.062Z,0.40
2019-02-04T11:55:49.347Z,0.40
2019-02-04T11:58:26.563Z,0.40
2019-02-04T12:00:58.980Z,0.50
2019-02-04T12:03:33.535Z,0.50
2019-02-04T12:06:05.667Z,0.50
2019-02-04T12:08:38.506Z,0.50
2019-02-04T12:11:24.930Z,0.50
2019-02-04T12:14:03.233Z,0.40
2019-02-04T12:16:37.791Z,0.40
2019-02-04T12:19:14.722Z,0.40
2019-02-04T12:21:47.278Z,0.40
2019-02-04T12:24:20.289Z,0.50
2019-02-04T12:26:54.943Z,0.47
2019-02-04T12:29:28.927Z,0.50
2019-02-04T12:32:01.511Z,0.40
2019-02-04T12:34:33.206Z,0.50
2019-02-04T12:37:02.916Z,0.50
2019-02-04T12:39:36.691Z,0.50
2019-02-04T12:42:09.415Z,0.50
2019-02-04T12:44:44.109Z,0.50
2019-02-04T12:47:30.318Z,0.50
2019-02-04T12:50:20.528Z,0.50
2019-02-04T12:52:53.706Z,0.40
2019-02-04T12:55:27.405Z,0.50
2019-02-04T12:58:01.476Z,0.50
2019-02-04T13:00:32.410Z,0.50
2019-02-04T13:03:02.899Z,0.40
2019-02-04T13:05:35.101Z,0.50
2019-02-04T13:08:05.786Z,0.50
2019-02-04T13:10:58.886Z,0.40
2019-02-04T13:13:31.603Z,0.40
2019-02-04T13:16:06.223Z,0.50
2019-02-04T13:18:41.919Z,0.40
2019-02-04T13:21:16.584Z,0.50
2019-02-04T13:23:49.741Z,0.40
2019-02-04T13:26:23.713Z,0.43
2019-02-04T13:28:59.202Z,0.40
2019-02-04T13:31:34.911Z,0.40
2019-02-04T13:34:07.140Z,0.50
2019-02-04T13:36:45.356Z,0.40
2019-02-04T13:39:15.823Z,0.40
2019-02-04T13:41:49.007Z,0.40
2019-02-04T13:44:22.111Z,0.50
2019-02-04T13:46:53.225Z,0.50
2019-02-04T13:49:27.143Z,0.50
2019-02-04T13:52:00.455Z,0.40
2019-02-04T13:54:34.219Z,0.40
2019-02-04T13:57:07.649Z,0.40
2019-02-04T13:59:42.183Z,0.50
2019-02-04T14:02:14.304Z,0.40
2019-02-04T14:04:46.034Z,0.40
2019-02-04T14:07:21.440Z,0.50
2019-02-04T14:09:51.877Z,0.50
2019-02-04T14:12:22.118Z,0.40
2019-02-04T14:14:52.678Z,0.50
2019-02-04T14:17:24.453Z,0.50
2019-02-04T14:19:59.359Z,0.43
2019-02-04T14:22:36.896Z,0.50
2019-02-04T14:25:10.028Z,0.40
2019-02-04T14:27:42.411Z,0.40
2019-02-04T14:30:23.237Z,0.50
2019-02-04T14:32:54.795Z,0.40
2019-02-04T14:35:24.958Z,0.50
2019-02-04T14:37:57.935Z,0.40
2019-02-04T14:40:31.000Z,0.40
2019-02-04T14:43:07.983Z,0.40
2019-02-04T14:46:23.654Z,0.50
2019-02-04T14:49:30.314Z,0.50
2019-02-04T14:52:54.214Z,0.50
2019-02-04T14:55:57.344Z,0.40
2019-02-04T14:59:13.759Z,0.40
2019-02-04T15:02:25.442Z,0.40
2019-02-04T15:05:22.915Z,0.40
2019-02-04T15:08:33.278Z,0.40
2019-02-04T15:11:37.934Z,0.40
2019-02-04T15:15:01.774Z,0.50
2019-02-04T15:18:32.724Z,0.50
2019-02-04T15:21:26.559Z,0.40
2019-02-04T15:24:12.255Z,0.40
2019-02-04T15:27:39.910Z,0.40
2019-02-04T15:30:53.040Z,0.40
2019-02-04T15:34:12.357Z,0.40
2019-02-04T15:37:09.676Z,0.40
2019-02-04T15:40:23.470Z,0.50
2019-02-04T15:43:38.273Z,0.40
2019-02-04T15:47:05.055Z,0.40
2019-02-04T15:50:24.009Z,0.40
2019-02-04T15:53:35.151Z,0.50
2019-02-04T15:56:08.640Z,0.40
2019-02-04T15:59:18.242Z,0.40
2019-02-04T16:01:50.214Z,0.50
2019-02-04T16:04:32.721Z,0.40
2019-02-04T16:07:06.631Z,0.40
2019-02-04T16:09:39.168Z,0.40
2019-02-04T16:12:12.771Z,0.40
2019-02-04T16:14:44.896Z,0.40
2019-02-04T16:17:19.494Z,0.47
2019-02-04T16:19:54.194Z,0.40
2019-02-04T16:22:31.872Z,0.50
2019-02-04T16:25:02.425Z,0.50
2019-02-04T16:27:40.959Z,0.40
2019-02-04T16:30:17.199Z,0.40
2019-02-04T16:32:52.476Z,0.40
2019-02-04T16:35:21.631Z,0.40
2019-02-04T16:37:52.725Z,0.40
2019-02-04T16:40:23.250Z,0.40
2019-02-04T16:42:57.137Z,0.50
2019-02-04T16:45:30.124Z,0.40
2019-02-04T16:48:02.759Z,0.50
2019-02-04T16:50:35.712Z,0.40
2019-02-04T16:53:10.522Z,0.40
2019-02-04T16:55:42.955Z,0.50
2019-02-04T16:58:15.334Z,0.50
2019-02-04T17:00:48.419Z,0.50
2019-02-04T17:03:24.840Z,0.40
2019-02-04T17:05:56.515Z,0.40
2019-02-04T17:08:30.559Z,0.50
2019-02-04T17:11:01.083Z,0.40
2019-02-04T17:13:30.692Z,0.40
2019-02-04T17:16:00.650Z,0.50
2019-02-04T17:18:35.018Z,0.40
2019-02-04T17:21:08.867Z,0.40
2019-02-04T17:23:42.194Z,0.40
2019-02-04T17:26:15.382Z,0.50
2019-02-04T17:28:49.471Z,0.47
2019-02-04T17:31:23.143Z,0.40
2019-02-04T17:33:56.863Z,0.40
2019-02-04T17:36:29.515Z,0.40
2019-02-04T17:38:59.313Z,0.40
2019-02-04T17:41:30.550Z,0.50
2019-02-04T17:44:00.715Z,0.50
2019-02-04T17:46:34.826Z,0.40
2019-02-04T17:49:10.343Z,0.43
2019-02-04T17:51:43.979Z,0.40
2019-02-04T17:54:16.207Z,0.50
2019-02-04T17:56:49.319Z,0.50
2019-02-04T17:59:23.389Z,0.40
2019-02-04T18:01:57.077Z,0.40
2019-02-04T18:04:31.748Z,0.47
2019-02-04T18:07:05.259Z,0.47
2019-02-04T18:09:39.930Z,0.40
2019-02-04T18:12:13.558Z,0.40
2019-02-04T18:14:48.363Z,0.40
2019-02-04T18:20:15.876Z,0.40
2019-02-04T18:22:53.925Z,0.40
2019-02-04T18:25:27.137Z,0.40
2019-02-04T18:28:00.768Z,0.40
2019-02-04T18:30:35.809Z,0.40
2019-02-04T18:33:10.511Z,0.40
2019-02-04T18:35:40.649Z,0.40
2019-02-04T18:38:14.152Z,0.40
2019-02-04T18:40:48.387Z,0.50
2019-02-04T18:43:21.898Z,0.40
2019-02-04T18:45:55.175Z,0.40
2019-02-04T18:48:30.082Z,0.50
2019-02-04T18:51:03.144Z,0.50
2019-02-04T18:53:35.480Z,0.40
2019-02-04T18:56:05.647Z,0.40
2019-02-04T18:58:37.975Z,0.40
2019-02-04T19:01:09.651Z,0.40
2019-02-04T19:03:42.534Z,0.40
2019-02-04T19:06:14.772Z,0.40
2019-02-04T19:08:47.792Z,0.50
2019-02-04T19:11:17.692Z,0.40
2019-02-04T19:13:56.737Z,0.40
2019-02-04T19:16:31.301Z,0.40
2019-02-04T19:19:03.463Z,0.43
2019-02-04T19:21:40.136Z,0.40
2019-02-04T19:24:15.625Z,0.40
2019-02-04T19:26:47.336Z,0.40
2019-02-04T19:29:22.014Z,0.60
2019-02-04T19:31:56.073Z,0.40
2019-02-04T19:34:29.200Z,0.40
2019-02-04T19:37:05.674Z,0.40
2019-02-04T19:39:37.294Z,0.40
2019-02-04T19:42:09.664Z,0.40
2019-02-04T19:44:46.020Z,0.40
2019-02-04T19:47:22.213Z,0.40
2019-02-04T19:49:54.955Z,0.40
2019-02-04T19:52:32.707Z,0.50
2019-02-04T19:55:05.484Z,0.40
2019-02-04T19:57:40.255Z,0.40
2019-02-04T20:00:20.597Z,0.40
2019-02-04T20:02:52.263Z,0.40
2019-02-04T20:05:24.959Z,0.40
2019-02-04T20:07:58.238Z,0.40
2019-02-04T20:10:33.548Z,0.40
2019-02-04T20:13:06.345Z,0.40
2019-02-04T20:15:36.315Z,0.43
2019-02-04T20:18:12.480Z,0.40
2019-02-04T20:20:48.225Z,0.43
2019-02-04T20:23:22.309Z,0.40
2019-02-04T20:25:54.957Z,0.40
2019-02-04T20:28:28.038Z,0.40
2019-02-04T20:30:59.378Z,0.47
2019-02-04T20:33:31.461Z,0.40
2019-02-04T20:36:04.478Z,0.40
2019-02-04T20:38:39.363Z,0.40
2019-02-04T20:41:12.175Z,0.50
2019-02-04T20:43:44.202Z,0.40
2019-02-04T20:46:16.894Z,0.40
2019-02-04T20:48:50.494Z,0.40
2019-02-04T20:51:23.659Z,0.40
2019-02-04T20:53:56.391Z,0.40
2019-02-04T20:56:29.411Z,0.40
2019-02-04T20:59:01.407Z,0.40
2019-02-04T21:01:34.431Z,0.40
2019-02-04T21:04:07.592Z,0.40
2019-02-04T21:06:38.383Z,0.40
2019-02-04T21:09:15.659Z,0.40
2019-02-04T21:14:59.687Z,0.40
2019-02-04T21:17:32.747Z,0.40
2019-02-04T21:20:07.680Z,0.40
2019-02-04T21:22:42.316Z,0.40
2019-02-04T21:25:16.454Z,0.20
2019-02-04T21:27:53.446Z,0.40
2019-02-04T21:30:34.732Z,0.40
2019-02-04T21:33:11.270Z,0.40
2019-02-04T21:35:47.839Z,0.40
2019-02-04T21:38:20.831Z,0.40
2019-02-04T21:40:53.929Z,0.43
2019-02-04T21:43:27.456Z,0.40
2019-02-04T21:46:00.491Z,0.40
2019-02-04T21:48:33.799Z,0.40
2019-02-04T21:51:08.756Z,0.30
2019-02-04T21:53:40.879Z,0.40
2019-02-04T21:56:15.967Z,0.43
2019-02-04T21:58:48.062Z,0.40
2019-02-04T22:01:23.667Z,0.40
2019-02-04T22:03:55.466Z,0.40
2019-02-04T22:06:30.047Z,0.40
2019-02-04T22:09:05.635Z,0.40
2019-02-04T22:11:35.890Z,0.40
2019-02-04T22:14:11.713Z,0.40
2019-02-04T22:16:46.463Z,0.50
2019-02-04T22:19:24.709Z,0.37
2019-02-04T22:21:59.236Z,0.40
2019-02-04T22:24:32.032Z,0.33
2019-02-04T22:27:05.727Z,0.40
2019-02-04T22:29:40.607Z,0.40
2019-02-04T22:32:13.406Z,0.40
2019-02-04T22:34:48.228Z,0.40
2019-02-04T22:37:23.816Z,0.43
2019-02-04T22:39:59.752Z,0.40
2019-02-04T22:42:34.402Z,0.40
2019-02-04T22:45:08.062Z,0.40
2019-02-04T22:47:43.686Z,0.40
2019-02-04T22:50:23.748Z,0.40
2019-02-04T22:53:01.989Z,0.40
2019-02-04T22:55:32.820Z,0.40
2019-02-04T22:58:07.422Z,0.40
2019-02-04T23:01:08.289Z,0.40
2019-02-04T23:03:46.086Z,0.40
2019-02-04T23:06:22.914Z,0.30
2019-02-04T23:08:58.463Z,0.40
2019-02-04T23:11:30.094Z,0.30
2019-02-04T23:14:03.438Z,0.50
2019-02-04T23:16:37.055Z,0.40
2019-02-04T23:19:11.586Z,0.40
2019-02-04T23:21:45.344Z,0.40
2019-02-04T23:24:20.535Z,0.30
2019-02-04T23:26:55.747Z,0.40
2019-02-04T23:29:28.286Z,0.40
2019-02-04T23:32:03.176Z,0.40
2019-02-04T23:34:37.760Z,0.40
2019-02-04T23:37:11.049Z,0.40
2019-02-04T23:39:45.095Z,0.40
2019-02-04T23:42:18.919Z,0.40
2019-02-04T23:44:51.043Z,0.40
2019-02-04T23:47:25.506Z,0.40
2019-02-04T23:50:00.039Z,0.40
2019-02-04T23:52:38.367Z,0.40
2019-02-04T23:55:12.080Z,0.40
2019-02-04T23:57:45.636Z,0.30
